sensor_id;sensor_type;location;lat;lon;timestamp;pressure;altitude;pressure_sealevel;temperature;humidity
68807;BME280;55800;54.272;18.558;2023-08-17T00:01:53;101603.28;;;19.47;53.14
68807;BME280;55800;54.272;18.558;2023-08-17T00:04:23;101596.00;;;19.47;53.20
68807;BME280;55800;54.272;18.558;2023-08-17T00:06:54;101588.84;;;19.46;53.06
68807;BME280;55800;54.272;18.558;2023-08-17T00:09:23;101600.34;;;19.50;53.84
68807;BME280;55800;54.272;18.558;2023-08-17T00:11:52;101584.19;;;19.48;53.45
68807;BME280;55800;54.272;18.558;2023-08-17T00:14:22;101585.56;;;19.55;54.93
68807;BME280;55800;54.272;18.558;2023-08-17T00:16:51;101594.66;;;19.54;54.24
68807;BME280;55800;54.272;18.558;2023-08-17T00:19:21;101587.66;;;19.50;54.07
68807;BME280;55800;54.272;18.558;2023-08-17T00:21:52;101584.09;;;19.50;53.95
68807;BME280;55800;54.272;18.558;2023-08-17T00:24:22;101584.09;;;19.50;53.91
68807;BME280;55800;54.272;18.558;2023-08-17T00:26:52;101576.81;;;19.50;53.61
68807;BME280;55800;54.272;18.558;2023-08-17T00:29:21;101571.22;;;19.53;54.50
68807;BME280;55800;54.272;18.558;2023-08-17T00:31:51;101574.88;;;19.52;54.81
68807;BME280;55800;54.272;18.558;2023-08-17T00:34:20;101576.63;;;19.53;54.58
68807;BME280;55800;54.272;18.558;2023-08-17T00:36:50;101564.03;;;19.52;53.96
68807;BME280;55800;54.272;18.558;2023-08-17T00:39:21;101572.94;;;19.54;53.75
68807;BME280;55800;54.272;18.558;2023-08-17T00:41:51;101572.94;;;19.54;53.48
68807;BME280;55800;54.272;18.558;2023-08-17T00:44:20;101561.22;;;19.54;53.67
68807;BME280;55800;54.272;18.558;2023-08-17T00:46:50;101572.16;;;19.52;54.29
68807;BME280;55800;54.272;18.558;2023-08-17T00:49:19;101574.22;;;19.49;54.16
68807;BME280;55800;54.272;18.558;2023-08-17T00:51:49;101578.75;;;19.48;54.26
68807;BME280;55800;54.272;18.558;2023-08-17T00:54:24;101573.53;;;19.45;54.95
68807;BME280;55800;54.272;18.558;2023-08-17T00:56:54;101574.59;;;19.42;53.87
68807;BME280;55800;54.272;18.558;2023-08-17T00:59:24;101565.88;;;19.37;54.24
68807;BME280;55800;54.272;18.558;2023-08-17T01:01:53;101566.94;;;19.35;53.76
68807;BME280;55800;54.272;18.558;2023-08-17T01:04:22;101569.91;;;19.30;55.72
68807;BME280;55800;54.272;18.558;2023-08-17T01:06:52;101573.59;;;19.29;54.33
68807;BME280;55800;54.272;18.558;2023-08-17T01:09:21;101569.53;;;19.22;54.24
68807;BME280;55800;54.272;18.558;2023-08-17T01:11:57;101573.28;;;19.20;54.14
68807;BME280;55800;54.272;18.558;2023-08-17T01:14:33;101574.44;;;19.16;54.09
68807;BME280;55800;54.272;18.558;2023-08-17T01:17:10;101575.59;;;19.12;53.78
68807;BME280;55800;54.272;18.558;2023-08-17T01:19:41;101564.94;;;19.09;53.61
68807;BME280;55800;54.272;18.558;2023-08-17T01:22:16;101557.03;;;19.06;53.49
68807;BME280;55800;54.272;18.558;2023-08-17T01:24:48;101559.91;;;19.03;53.53
68807;BME280;55800;54.272;18.558;2023-08-17T01:27:17;101564.66;;;18.99;53.82
68807;BME280;55800;54.272;18.558;2023-08-17T01:29:46;101574.06;;;18.94;52.98
68807;BME280;55800;54.272;18.558;2023-08-17T01:32:22;101574.13;;;18.92;53.32
68807;BME280;55800;54.272;18.558;2023-08-17T01:34:58;101571.63;;;18.89;53.82
68807;BME280;55800;54.272;18.558;2023-08-17T01:37:34;101573.81;;;18.83;55.02
68807;BME280;55800;54.272;18.558;2023-08-17T01:40:10;101582.13;;;18.80;55.39
68807;BME280;55800;54.272;18.558;2023-08-17T01:42:42;101580.41;;;18.79;54.36
68807;BME280;55800;54.272;18.558;2023-08-17T01:45:12;101579.63;;;18.77;53.89
68807;BME280;55800;54.272;18.558;2023-08-17T01:47:44;101568.09;;;18.73;56.11
68807;BME280;55800;54.272;18.558;2023-08-17T01:50:14;101561.00;;;18.70;54.97
68807;BME280;55800;54.272;18.558;2023-08-17T01:52:43;101563.13;;;18.65;54.31
68807;BME280;55800;54.272;18.558;2023-08-17T01:55:14;101568.72;;;18.62;53.86
68807;BME280;55800;54.272;18.558;2023-08-17T01:57:44;101571.72;;;18.58;54.38
68807;BME280;55800;54.272;18.558;2023-08-17T02:00:13;101571.03;;;18.54;53.38
68807;BME280;55800;54.272;18.558;2023-08-17T02:02:43;101576.63;;;18.51;53.93
68807;BME280;55800;54.272;18.558;2023-08-17T02:05:12;101581.44;;;18.46;53.85
68807;BME280;55800;54.272;18.558;2023-08-17T02:07:42;101587.00;;;18.43;53.92
68807;BME280;55800;54.272;18.558;2023-08-17T02:10:11;101588.25;;;18.38;54.10
68807;BME280;55800;54.272;18.558;2023-08-17T02:12:42;101586.59;;;18.35;54.22
68807;BME280;55800;54.272;18.558;2023-08-17T02:15:11;101583.25;;;18.30;54.77
68807;BME280;55800;54.272;18.558;2023-08-17T02:17:41;101588.88;;;18.27;54.43
68807;BME280;55800;54.272;18.558;2023-08-17T02:20:11;101588.09;;;18.25;54.08
68807;BME280;55800;54.272;18.558;2023-08-17T02:22:43;101583.88;;;18.20;54.46
68807;BME280;55800;54.272;18.558;2023-08-17T02:25:12;101590.38;;;18.17;54.91
68807;BME280;55800;54.272;18.558;2023-08-17T02:27:43;101593.25;;;18.14;56.49
68807;BME280;55800;54.272;18.558;2023-08-17T02:33:57;101582.69;;;18.10;56.45
68807;BME280;55800;54.272;18.558;2023-08-17T02:36:33;101583.72;;;18.07;57.63
68807;BME280;55800;54.272;18.558;2023-08-17T02:39:03;101577.72;;;18.02;57.22
68807;BME280;55800;54.272;18.558;2023-08-17T02:41:33;101572.56;;;17.98;57.76
68807;BME280;55800;54.272;18.558;2023-08-17T02:44:04;101577.31;;;17.94;57.54
68807;BME280;55800;54.272;18.558;2023-08-17T02:46:34;101580.06;;;17.92;56.02
68807;BME280;55800;54.272;18.558;2023-08-17T02:49:03;101586.53;;;17.90;57.95
68807;BME280;55800;54.272;18.558;2023-08-17T02:51:33;101587.66;;;17.86;57.00
68807;BME280;55800;54.272;18.558;2023-08-17T02:54:03;101590.38;;;17.86;56.36
68807;BME280;55800;54.272;18.558;2023-08-17T02:56:33;101590.56;;;17.83;56.84
68807;BME280;55800;54.272;18.558;2023-08-17T02:59:04;101580.78;;;17.80;57.40
68807;BME280;55800;54.272;18.558;2023-08-17T03:01:33;101589.06;;;17.77;57.64
68807;BME280;55800;54.272;18.558;2023-08-17T03:04:03;101593.44;;;17.80;57.38
68807;BME280;55800;54.272;18.558;2023-08-17T03:06:32;101588.19;;;17.77;57.33
68807;BME280;55800;54.272;18.558;2023-08-17T03:09:02;101590.03;;;17.76;57.86
68807;BME280;55800;54.272;18.558;2023-08-17T03:11:32;101598.06;;;17.78;56.40
68807;BME280;55800;54.272;18.558;2023-08-17T03:14:01;101596.31;;;17.77;57.15
68807;BME280;55800;54.272;18.558;2023-08-17T03:16:32;101598.06;;;17.78;56.31
68807;BME280;55800;54.272;18.558;2023-08-17T03:19:02;101597.25;;;17.76;56.65
68807;BME280;55800;54.272;18.558;2023-08-17T03:21:32;101591.94;;;17.74;57.65
68807;BME280;55800;54.272;18.558;2023-08-17T03:24:02;101592.00;;;17.73;57.29
68807;BME280;55800;54.272;18.558;2023-08-17T03:26:31;101595.59;;;17.73;57.63
68807;BME280;55800;54.272;18.558;2023-08-17T03:29:01;101591.06;;;17.74;58.92
68807;BME280;55800;54.272;18.558;2023-08-17T03:31:31;101590.03;;;17.76;58.87
68807;BME280;55800;54.272;18.558;2023-08-17T03:34:02;101584.38;;;17.81;59.19
68807;BME280;55800;54.272;18.558;2023-08-17T03:36:31;101577.03;;;17.83;58.65
68807;BME280;55800;54.272;18.558;2023-08-17T03:39:01;101572.56;;;17.82;61.09
68807;BME280;55800;54.272;18.558;2023-08-17T03:41:30;101577.63;;;17.88;59.81
68807;BME280;55800;54.272;18.558;2023-08-17T03:43:59;101573.00;;;17.90;60.45
68807;BME280;55800;54.272;18.558;2023-08-17T03:46:29;101570.13;;;17.93;60.60
68807;BME280;55800;54.272;18.558;2023-08-17T03:49:00;101570.38;;;17.88;59.58
68807;BME280;55800;54.272;18.558;2023-08-17T03:51:30;101573.63;;;17.95;59.81
68807;BME280;55800;54.272;18.558;2023-08-17T03:53:59;101574.41;;;17.97;60.36
68807;BME280;55800;54.272;18.558;2023-08-17T03:56:28;101585.47;;;17.92;61.03
68807;BME280;55800;54.272;18.558;2023-08-17T03:58:58;101586.47;;;17.91;58.32
68807;BME280;55800;54.272;18.558;2023-08-17T04:01:27;101594.38;;;17.94;58.89
68807;BME280;55800;54.272;18.558;2023-08-17T04:03:58;101595.69;;;18.03;59.92
68807;BME280;55800;54.272;18.558;2023-08-17T04:06:27;101590.13;;;18.06;59.36
68807;BME280;55800;54.272;18.558;2023-08-17T04:08:57;101581.28;;;18.03;59.78
68807;BME280;55800;54.272;18.558;2023-08-17T04:11:26;101580.19;;;18.07;60.28
68807;BME280;55800;54.272;18.558;2023-08-17T04:13:55;101581.81;;;18.09;60.09
68807;BME280;55800;54.272;18.558;2023-08-17T04:16:25;101586.00;;;18.15;60.41
68807;BME280;55800;54.272;18.558;2023-08-17T04:18:54;101581.63;;;18.12;59.90
68807;BME280;55800;54.272;18.558;2023-08-17T04:21:25;101584.34;;;18.12;59.27
68807;BME280;55800;54.272;18.558;2023-08-17T04:23:55;101585.13;;;18.14;59.82
68807;BME280;55800;54.272;18.558;2023-08-17T04:26:24;101590.44;;;18.16;61.53
68807;BME280;55800;54.272;18.558;2023-08-17T04:28:53;101599.19;;;18.21;59.03
68807;BME280;55800;54.272;18.558;2023-08-17T04:31:23;101616.22;;;18.23;59.58
68807;BME280;55800;54.272;18.558;2023-08-17T04:33:59;101615.16;;;18.25;58.27
68807;BME280;55800;54.272;18.558;2023-08-17T04:36:30;101630.44;;;18.26;58.42
68807;BME280;55800;54.272;18.558;2023-08-17T04:39:00;101629.28;;;18.30;58.52
68807;BME280;55800;54.272;18.558;2023-08-17T04:41:29;101633.66;;;18.33;59.13
68807;BME280;55800;54.272;18.558;2023-08-17T04:43:58;101647.97;;;18.35;58.53
68807;BME280;55800;54.272;18.558;2023-08-17T04:46:28;101651.47;;;18.37;57.80
68807;BME280;55800;54.272;18.558;2023-08-17T04:48:57;101664.94;;;18.38;57.94
68807;BME280;55800;54.272;18.558;2023-08-17T04:51:28;101681.88;;;18.42;57.59
68807;BME280;55800;54.272;18.558;2023-08-17T04:53:58;101684.50;;;18.43;57.95
68807;BME280;55800;54.272;18.558;2023-08-17T04:56:27;101689.78;;;18.46;57.66
68807;BME280;55800;54.272;18.558;2023-08-17T04:58:57;101688.72;;;18.49;57.85
68807;BME280;55800;54.272;18.558;2023-08-17T05:01:26;101680.50;;;18.50;57.56
68807;BME280;55800;54.272;18.558;2023-08-17T05:03:55;101676.81;;;18.51;57.35
68807;BME280;55800;54.272;18.558;2023-08-17T05:06:30;101668.53;;;18.54;57.39
68807;BME280;55800;54.272;18.558;2023-08-17T05:09:01;101653.06;;;18.56;58.10
68807;BME280;55800;54.272;18.558;2023-08-17T05:11:34;101647.47;;;18.59;59.81
68807;BME280;55800;54.272;18.558;2023-08-17T05:14:04;101642.75;;;18.63;61.23
68807;BME280;55800;54.272;18.558;2023-08-17T05:16:33;101654.09;;;18.69;60.69
68807;BME280;55800;54.272;18.558;2023-08-17T05:19:04;101657.75;;;18.68;59.67
68807;BME280;55800;54.272;18.558;2023-08-17T05:21:35;101655.94;;;18.69;60.09
68807;BME280;55800;54.272;18.558;2023-08-17T05:24:05;101658.72;;;18.67;60.77
68807;BME280;55800;54.272;18.558;2023-08-17T05:26:38;101657.75;;;18.68;64.47
68807;BME280;55800;54.272;18.558;2023-08-17T05:29:13;101650.41;;;18.70;63.11
68807;BME280;55800;54.272;18.558;2023-08-17T05:31:42;101630.09;;;18.63;62.22
68807;BME280;55800;54.272;18.558;2023-08-17T05:34:11;101615.81;;;18.60;62.00
68807;BME280;55800;54.272;18.558;2023-08-17T05:36:42;101606.91;;;18.58;60.76
68807;BME280;55800;54.272;18.558;2023-08-17T05:39:13;101589.03;;;18.55;63.60
68807;BME280;55800;54.272;18.558;2023-08-17T05:41:43;101570.88;;;18.57;62.88
68807;BME280;55800;54.272;18.558;2023-08-17T05:44:12;101554.88;;;18.53;65.06
68807;BME280;55800;54.272;18.558;2023-08-17T05:46:43;101543.16;;;18.52;65.07
68807;BME280;55800;54.272;18.558;2023-08-17T05:49:12;101535.16;;;18.51;64.04
68807;BME280;55800;54.272;18.558;2023-08-17T05:55:26;101528.25;;;18.45;66.87
68807;BME280;55800;54.272;18.558;2023-08-17T05:57:55;101528.84;;;18.50;65.53
68807;BME280;55800;54.272;18.558;2023-08-17T06:00:25;101542.28;;;18.52;65.73
68807;BME280;55800;54.272;18.558;2023-08-17T06:02:54;101552.25;;;18.51;65.49
68807;BME280;55800;54.272;18.558;2023-08-17T06:05:30;101565.72;;;18.53;65.09
68807;BME280;55800;54.272;18.558;2023-08-17T06:07:59;101576.34;;;18.56;63.50
68807;BME280;55800;54.272;18.558;2023-08-17T06:10:30;101582.47;;;18.59;62.46
68807;BME280;55800;54.272;18.558;2023-08-17T06:12:59;101586.91;;;18.60;61.77
68807;BME280;55800;54.272;18.558;2023-08-17T06:15:29;101591.19;;;18.64;61.44
68807;BME280;55800;54.272;18.558;2023-08-17T06:17:58;101592.72;;;18.68;61.51
68807;BME280;55800;54.272;18.558;2023-08-17T06:20:28;101595.28;;;18.72;61.94
68807;BME280;55800;54.272;18.558;2023-08-17T06:22:57;101603.22;;;18.75;62.75
68807;BME280;55800;54.272;18.558;2023-08-17T06:25:29;101604.59;;;18.82;62.39
68807;BME280;55800;54.272;18.558;2023-08-17T06:27:59;101611.28;;;18.90;63.55
68807;BME280;55800;54.272;18.558;2023-08-17T06:30:28;101611.38;;;18.89;62.16
68807;BME280;55800;54.272;18.558;2023-08-17T06:32:57;101608.56;;;18.90;61.62
68807;BME280;55800;54.272;18.558;2023-08-17T06:35:27;101619.91;;;18.97;62.38
68807;BME280;55800;54.272;18.558;2023-08-17T06:37:57;101629.72;;;18.99;62.33
68807;BME280;55800;54.272;18.558;2023-08-17T06:40:27;101639.50;;;19.02;62.24
68807;BME280;55800;54.272;18.558;2023-08-17T06:42:58;101639.13;;;19.08;63.00
68807;BME280;55800;54.272;18.558;2023-08-17T06:45:27;101634.09;;;19.16;65.10
68807;BME280;55800;54.272;18.558;2023-08-17T06:47:57;101638.34;;;19.20;65.91
68807;BME280;55800;54.272;18.558;2023-08-17T06:50:27;101646.03;;;19.27;65.82
68807;BME280;55800;54.272;18.558;2023-08-17T06:52:56;101644.00;;;19.31;64.45
68807;BME280;55800;54.272;18.558;2023-08-17T06:55:25;101632.69;;;19.38;63.07
68807;BME280;55800;54.272;18.558;2023-08-17T06:57:54;101636.88;;;19.44;62.74
68807;BME280;55800;54.272;18.558;2023-08-17T07:00:26;101645.59;;;19.49;62.96
68807;BME280;55800;54.272;18.558;2023-08-17T07:02:55;101648.72;;;19.57;65.28
68807;BME280;55800;54.272;18.558;2023-08-17T07:05:28;101653.81;;;19.62;65.08
68807;BME280;55800;54.272;18.558;2023-08-17T07:07:57;101658.78;;;19.69;64.69
68807;BME280;55800;54.272;18.558;2023-08-17T07:10:30;101645.59;;;19.77;65.48
68807;BME280;55800;54.272;18.558;2023-08-17T07:12:59;101660.81;;;19.80;64.50
68807;BME280;55800;54.272;18.558;2023-08-17T07:15:32;101660.72;;;19.81;64.55
68807;BME280;55800;54.272;18.558;2023-08-17T07:18:02;101671.56;;;19.81;65.14
68807;BME280;55800;54.272;18.558;2023-08-17T07:20:32;101667.69;;;19.85;64.14
68807;BME280;55800;54.272;18.558;2023-08-17T07:23:00;101672.16;;;19.86;66.19
68807;BME280;55800;54.272;18.558;2023-08-17T07:25:31;101672.72;;;19.91;66.63
68807;BME280;55800;54.272;18.558;2023-08-17T07:28:01;101683.50;;;19.93;65.08
68807;BME280;55800;54.272;18.558;2023-08-17T07:30:31;101676.78;;;19.98;66.38
68807;BME280;55800;54.272;18.558;2023-08-17T07:33:01;101675.56;;;20.04;65.46
68807;BME280;55800;54.272;18.558;2023-08-17T07:35:30;101673.59;;;20.06;66.51
68807;BME280;55800;54.272;18.558;2023-08-17T07:38:00;101665.06;;;20.12;64.69
68807;BME280;55800;54.272;18.558;2023-08-17T07:40:36;101672.69;;;20.19;66.21
68807;BME280;55800;54.272;18.558;2023-08-17T07:43:05;101670.72;;;20.23;65.43
68807;BME280;55800;54.272;18.558;2023-08-17T07:45:37;101675.91;;;20.26;65.21
68807;BME280;55800;54.272;18.558;2023-08-17T07:48:07;101681.16;;;20.29;64.25
68807;BME280;55800;54.272;18.558;2023-08-17T07:50:36;101681.41;;;20.39;66.62
68807;BME280;55800;54.272;18.558;2023-08-17T07:53:06;101686.44;;;20.45;67.48
68807;BME280;55800;54.272;18.558;2023-08-17T07:55:35;101685.84;;;20.54;66.97
68807;BME280;55800;54.272;18.558;2023-08-17T07:58:05;101679.81;;;20.63;66.74
68807;BME280;55800;54.272;18.558;2023-08-17T08:00:36;101683.75;;;20.71;66.85
68807;BME280;55800;54.272;18.558;2023-08-17T08:03:07;101682.25;;;20.80;66.70
68807;BME280;55800;54.272;18.558;2023-08-17T08:05:37;101685.53;;;20.85;67.74
68807;BME280;55800;54.272;18.558;2023-08-17T08:08:07;101680.47;;;20.93;65.39
68807;BME280;55800;54.272;18.558;2023-08-17T08:10:36;101677.88;;;21.04;66.47
68807;BME280;55800;54.272;18.558;2023-08-17T08:13:05;101674.22;;;21.18;65.19
68807;BME280;55800;54.272;18.558;2023-08-17T08:15:36;101664.44;;;21.28;65.54
68807;BME280;55800;54.272;18.558;2023-08-17T08:18:06;101667.41;;;21.37;65.83
68807;BME280;55800;54.272;18.558;2023-08-17T08:20:35;101669.38;;;21.48;65.76
68807;BME280;55800;54.272;18.558;2023-08-17T08:23:05;101671.34;;;21.58;64.94
68807;BME280;55800;54.272;18.558;2023-08-17T08:25:34;101669.69;;;21.68;64.47
68807;BME280;55800;54.272;18.558;2023-08-17T08:28:04;101661.53;;;21.81;65.11
68807;BME280;55800;54.272;18.558;2023-08-17T08:30:33;101660.78;;;21.92;65.17
68807;BME280;55800;54.272;18.558;2023-08-17T08:33:04;101658.03;;;22.04;63.90
68807;BME280;55800;54.272;18.558;2023-08-17T08:35:34;101654.38;;;22.16;64.06
68807;BME280;55800;54.272;18.558;2023-08-17T08:38:03;101645.53;;;22.25;64.33
68807;BME280;55800;54.272;18.558;2023-08-17T08:40:33;101643.03;;;22.35;64.04
68807;BME280;55800;54.272;18.558;2023-08-17T08:43:06;101650.50;;;22.44;63.89
68807;BME280;55800;54.272;18.558;2023-08-17T08:45:38;101639.16;;;22.50;64.13
68807;BME280;55800;54.272;18.558;2023-08-17T08:48:14;101646.66;;;22.59;63.69
68807;BME280;55800;54.272;18.558;2023-08-17T08:50:45;101644.09;;;22.69;63.38
68807;BME280;55800;54.272;18.558;2023-08-17T08:53:17;101649.50;;;22.81;63.37
68807;BME280;55800;54.272;18.558;2023-08-17T08:55:53;101645.81;;;22.93;63.47
68807;BME280;55800;54.272;18.558;2023-08-17T08:58:25;101652.28;;;23.03;63.01
68807;BME280;55800;54.272;18.558;2023-08-17T09:00:55;101650.22;;;23.07;62.68
68807;BME280;55800;54.272;18.558;2023-08-17T09:03:28;101653.81;;;23.18;62.65
68807;BME280;55800;54.272;18.558;2023-08-17T09:05:57;101658.56;;;23.27;61.81
68807;BME280;55800;54.272;18.558;2023-08-17T09:08:29;101657.47;;;23.30;61.58
68807;BME280;55800;54.272;18.558;2023-08-17T09:10:59;101648.53;;;23.28;61.30
68807;BME280;55800;54.272;18.558;2023-08-17T09:13:29;101652.91;;;23.31;60.70
68807;BME280;55800;54.272;18.558;2023-08-17T09:16:00;101655.41;;;23.34;59.95
68807;BME280;55800;54.272;18.558;2023-08-17T09:18:36;101650.94;;;23.33;59.77
68807;BME280;55800;54.272;18.558;2023-08-17T09:21:06;101643.69;;;23.32;59.59
68807;BME280;55800;54.272;18.558;2023-08-17T09:23:40;101642.38;;;23.37;59.46
68807;BME280;55800;54.272;18.558;2023-08-17T09:26:09;101640.28;;;23.41;59.52
68807;BME280;55800;54.272;18.558;2023-08-17T09:28:39;101644.50;;;23.45;59.62
68807;BME280;55800;54.272;18.558;2023-08-17T09:31:09;101649.47;;;23.51;59.51
68807;BME280;55800;54.272;18.558;2023-08-17T09:33:40;101648.38;;;23.53;59.39
68807;BME280;55800;54.272;18.558;2023-08-17T09:36:12;101648.97;;;23.57;59.17
68807;BME280;55800;54.272;18.558;2023-08-17T09:38:42;101642.63;;;23.56;58.23
68807;BME280;55800;54.272;18.558;2023-08-17T09:41:11;101646.75;;;23.62;58.50
68807;BME280;55800;54.272;18.558;2023-08-17T09:43:42;101635.97;;;23.60;57.94
68807;BME280;55800;54.272;18.558;2023-08-17T09:46:11;101641.06;;;23.54;58.50
68807;BME280;55800;54.272;18.558;2023-08-17T09:48:44;101637.44;;;23.53;58.77
68807;BME280;55800;54.272;18.558;2023-08-17T09:51:15;101648.75;;;23.60;58.74
68807;BME280;55800;54.272;18.558;2023-08-17T09:53:52;101643.16;;;23.61;58.79
68807;BME280;55800;54.272;18.558;2023-08-17T09:56:27;101638.44;;;23.63;58.69
68807;BME280;55800;54.272;18.558;2023-08-17T09:58:57;101647.16;;;23.68;58.35
68807;BME280;55800;54.272;18.558;2023-08-17T10:01:28;101646.03;;;23.71;58.59
68807;BME280;55800;54.272;18.558;2023-08-17T10:04:00;101640.31;;;23.74;58.63
68807;BME280;55800;54.272;18.558;2023-08-17T10:06:31;101643.78;;;23.76;58.90
68807;BME280;55800;54.272;18.558;2023-08-17T10:09:02;101644.44;;;23.79;58.95
68807;BME280;55800;54.272;18.558;2023-08-17T10:11:31;101639.06;;;23.89;58.96
68807;BME280;55800;54.272;18.558;2023-08-17T10:14:12;101634.59;;;23.99;58.83
68807;BME280;55800;54.272;18.558;2023-08-17T10:16:45;101644.41;;;24.01;58.31
68807;BME280;55800;54.272;18.558;2023-08-17T10:19:21;101644.78;;;24.19;58.54
68807;BME280;55800;54.272;18.558;2023-08-17T10:21:54;101653.97;;;24.29;58.55
68807;BME280;55800;54.272;18.558;2023-08-17T10:24:26;101651.06;;;24.42;58.35
68807;BME280;55800;54.272;18.558;2023-08-17T10:26:55;101641.47;;;24.58;58.33
68807;BME280;55800;54.272;18.558;2023-08-17T10:29:26;101642.91;;;24.73;58.43
68807;BME280;55800;54.272;18.558;2023-08-17T10:31:56;101634.91;;;24.93;58.28
68807;BME280;55800;54.272;18.558;2023-08-17T10:34:29;101629.91;;;24.98;56.96
68807;BME280;55800;54.272;18.558;2023-08-17T10:36:58;101625.13;;;25.11;57.28
68807;BME280;55800;54.272;18.558;2023-08-17T10:39:29;101633.84;;;25.25;57.33
68807;BME280;55800;54.272;18.558;2023-08-17T10:42:00;101633.91;;;25.35;57.46
68807;BME280;55800;54.272;18.558;2023-08-17T10:44:44;101633.38;;;25.41;56.39
68807;BME280;55800;54.272;18.558;2023-08-17T10:47:21;101637.25;;;25.38;56.68
68807;BME280;55800;54.272;18.558;2023-08-17T10:49:56;101622.41;;;25.41;56.65
68807;BME280;55800;54.272;18.558;2023-08-17T10:52:30;101617.31;;;25.47;56.09
68807;BME280;55800;54.272;18.558;2023-08-17T10:55:02;101614.44;;;25.49;55.53
68807;BME280;55800;54.272;18.558;2023-08-17T10:57:34;101607.81;;;25.51;55.96
68807;BME280;55800;54.272;18.558;2023-08-17T11:00:22;101617.19;;;25.49;55.48
68807;BME280;55800;54.272;18.558;2023-08-17T11:02:56;101624.84;;;25.55;55.28
68807;BME280;55800;54.272;18.558;2023-08-17T11:05:42;101607.53;;;25.54;55.29
68807;BME280;55800;54.272;18.558;2023-08-17T11:08:20;101610.97;;;25.47;55.11
68807;BME280;55800;54.272;18.558;2023-08-17T11:10:58;101610.09;;;25.46;55.58
68807;BME280;55800;54.272;18.558;2023-08-17T11:13:28;101602.63;;;25.48;55.00
68807;BME280;55800;54.272;18.558;2023-08-17T11:15:59;101597.69;;;25.42;55.60
68807;BME280;55800;54.272;18.558;2023-08-17T11:18:31;101601.19;;;25.33;55.87
68807;BME280;55800;54.272;18.558;2023-08-17T11:21:03;101600.78;;;25.38;55.67
68807;BME280;55800;54.272;18.558;2023-08-17T11:23:36;101598.16;;;25.36;55.15
68807;BME280;55800;54.272;18.558;2023-08-17T11:26:06;101589.94;;;25.36;55.29
68807;BME280;55800;54.272;18.558;2023-08-17T11:28:36;101580.38;;;25.42;55.13
68807;BME280;55800;54.272;18.558;2023-08-17T11:31:10;101590.56;;;25.40;54.88
68807;BME280;55800;54.272;18.558;2023-08-17T11:33:42;101584.72;;;25.44;55.21
68807;BME280;55800;54.272;18.558;2023-08-17T11:36:12;101587.66;;;25.52;55.29
68807;BME280;55800;54.272;18.558;2023-08-17T11:38:43;101591.69;;;25.58;55.27
68807;BME280;55800;54.272;18.558;2023-08-17T11:41:13;101581.47;;;25.60;55.47
68807;BME280;55800;54.272;18.558;2023-08-17T11:43:46;101577.00;;;25.59;55.70
68807;BME280;55800;54.272;18.558;2023-08-17T11:46:16;101582.34;;;25.61;55.97
68807;BME280;55800;54.272;18.558;2023-08-17T11:48:46;101579.59;;;25.61;55.45
68807;BME280;55800;54.272;18.558;2023-08-17T11:51:27;101579.94;;;25.67;55.49
68807;BME280;55800;54.272;18.558;2023-08-17T11:53:59;101582.81;;;25.66;55.76
68807;BME280;55800;54.272;18.558;2023-08-17T11:56:31;101586.28;;;25.68;55.36
68807;BME280;55800;54.272;18.558;2023-08-17T11:59:08;101582.25;;;25.72;55.45
68807;BME280;55800;54.272;18.558;2023-08-17T12:01:39;101577.34;;;25.75;55.54
68807;BME280;55800;54.272;18.558;2023-08-17T12:04:09;101577.66;;;25.82;55.32
68807;BME280;55800;54.272;18.558;2023-08-17T12:06:43;101581.44;;;25.90;55.36
68807;BME280;55800;54.272;18.558;2023-08-17T12:09:13;101570.38;;;26.01;55.56
68807;BME280;55800;54.272;18.558;2023-08-17T12:11:45;101582.81;;;26.05;54.65
68807;BME280;55800;54.272;18.558;2023-08-17T12:14:14;101570.31;;;26.12;54.35
68807;BME280;55800;54.272;18.558;2023-08-17T12:16:48;101580.72;;;26.28;54.40
68807;BME280;55800;54.272;18.558;2023-08-17T12:19:20;101580.44;;;26.31;54.17
68807;BME280;55800;54.272;18.558;2023-08-17T12:21:51;101574.94;;;26.41;54.80
68807;BME280;55800;54.272;18.558;2023-08-17T12:24:23;101569.19;;;26.44;53.76
68807;BME280;55800;54.272;18.558;2023-08-17T12:26:53;101579.00;;;26.37;54.21
68807;BME280;55800;54.272;18.558;2023-08-17T12:29:25;101572.50;;;26.47;53.99
68807;BME280;55800;54.272;18.558;2023-08-17T12:31:57;101571.81;;;26.55;54.36
68807;BME280;55800;54.272;18.558;2023-08-17T12:34:27;101572.53;;;26.57;53.70
68807;BME280;55800;54.272;18.558;2023-08-17T12:36:58;101572.94;;;26.62;53.66
68807;BME280;55800;54.272;18.558;2023-08-17T12:39:27;101578.44;;;26.62;53.86
68807;BME280;55800;54.272;18.558;2023-08-17T12:41:57;101576.84;;;26.69;53.95
68807;BME280;55800;54.272;18.558;2023-08-17T12:44:26;101579.03;;;26.75;53.88
68807;BME280;55800;54.272;18.558;2023-08-17T12:46:56;101577.63;;;26.80;54.31
68807;BME280;55800;54.272;18.558;2023-08-17T12:49:26;101587.28;;;26.84;54.47
68807;BME280;55800;54.272;18.558;2023-08-17T12:51:57;101591.03;;;26.74;53.78
68807;BME280;55800;54.272;18.558;2023-08-17T12:54:27;101583.91;;;26.62;53.66
68807;BME280;55800;54.272;18.558;2023-08-17T12:56:56;101582.75;;;26.64;53.88
68807;BME280;55800;54.272;18.558;2023-08-17T12:59:27;101591.16;;;26.63;53.77
68807;BME280;55800;54.272;18.558;2023-08-17T13:01:57;101582.47;;;26.58;53.62
68807;BME280;55800;54.272;18.558;2023-08-17T13:04:26;101584.66;;;26.54;53.33
68807;BME280;55800;54.272;18.558;2023-08-17T13:06:57;101584.50;;;26.56;53.27